createdAt,value
2019-01-23T00:00:00.730Z,-0.16
2019-01-23T00:02:30.513Z,-0.15
2019-01-23T00:05:00.529Z,-0.19
2019-01-23T00:07:31.513Z,-0.17
2019-01-23T00:10:01.526Z,-0.15
2019-01-23T00:12:31.813Z,-0.14
2019-01-23T00:15:01.546Z,-0.21
2019-01-23T00:17:31.658Z,-0.21
2019-01-23T00:20:01.385Z,-0.18
2019-01-23T00:22:31.096Z,-0.19
2019-01-23T00:25:01.094Z,-0.24
2019-01-23T00:27:31.311Z,-0.21
2019-01-23T00:30:01.537Z,-0.25
2019-01-23T00:32:32.226Z,-0.23
2019-01-23T00:35:01.955Z,-0.23
2019-01-23T00:37:31.673Z,-0.23
2019-01-23T00:40:01.751Z,-0.20
2019-01-23T00:42:31.725Z,-0.25
2019-01-23T00:45:01.622Z,-0.25
2019-01-23T00:47:31.865Z,-0.24
2019-01-23T00:50:01.767Z,-0.23
2019-01-23T00:52:32.611Z,-0.26
2019-01-23T00:55:02.824Z,-0.26
2019-01-23T00:57:32.562Z,-0.25
2019-01-23T01:00:03.769Z,-0.25
2019-01-23T01:02:35.182Z,-0.25
2019-01-23T01:05:06.156Z,-0.20
2019-01-23T01:07:36.077Z,-0.21
2019-01-23T01:10:08.584Z,-0.19
2019-01-23T01:12:38.443Z,-0.17
2019-01-23T01:15:13.302Z,-0.18
2019-01-23T01:17:40.723Z,-0.12
2019-01-23T01:20:11.378Z,-0.11
2019-01-23T01:22:41.480Z,-0.05
2019-01-23T01:25:13.368Z,-0.04
2019-01-23T01:27:43.566Z,-0.01
2019-01-23T01:30:19.479Z,0.02
2019-01-23T01:32:50.652Z,0.09
2019-01-23T01:35:20.621Z,0.07
2019-01-23T01:37:50.868Z,0.08
2019-01-23T01:40:21.240Z,0.12
2019-01-23T01:42:50.963Z,0.14
2019-01-23T01:45:20.835Z,0.14
2019-01-23T01:47:50.551Z,0.14
2019-01-23T01:50:21.496Z,0.09
2019-01-23T01:52:51.405Z,0.12
2019-01-23T01:55:21.125Z,0.13
2019-01-23T01:57:54.898Z,0.18
2019-01-23T02:00:25.275Z,0.17
2019-01-23T02:02:55.073Z,0.18
2019-01-23T02:05:25.070Z,0.22
2019-01-23T02:07:54.772Z,0.24
2019-01-23T02:10:24.654Z,0.28
2019-01-23T02:12:54.559Z,0.27
2019-01-23T02:15:24.319Z,0.19
2019-01-23T02:17:54.636Z,0.06
2019-01-23T02:20:26.764Z,0.03
2019-01-23T02:22:57.263Z,0.03
2019-01-23T02:25:27.308Z,0.02
2019-01-23T02:27:57.852Z,0.00
2019-01-23T02:30:27.661Z,0.01
2019-01-23T02:32:57.964Z,-0.01
2019-01-23T02:35:28.195Z,-0.06
2019-01-23T02:37:58.251Z,-0.05
2019-01-23T02:40:28.149Z,0.00
2019-01-23T02:42:58.053Z,0.05
2019-01-23T02:45:27.972Z,0.09
2019-01-23T02:47:58.275Z,0.10
2019-01-23T02:50:28.027Z,0.12
2019-01-23T02:52:58.564Z,0.12
2019-01-23T02:55:28.540Z,0.10
2019-01-23T02:57:59.312Z,0.10
2019-01-23T03:00:29.237Z,0.11
2019-01-23T03:02:59.208Z,0.13
2019-01-23T03:05:29.009Z,0.14
2019-01-23T03:07:58.728Z,0.10
2019-01-23T03:10:28.675Z,0.07
2019-01-23T03:12:58.482Z,0.00
2019-01-23T03:15:28.678Z,-0.05
2019-01-23T03:17:58.942Z,-0.02
2019-01-23T03:20:28.646Z,-0.01
2019-01-23T03:22:58.557Z,0.03
2019-01-23T03:25:29.609Z,0.08
2019-01-23T03:27:59.496Z,0.10
2019-01-23T03:30:29.683Z,0.11
2019-01-23T03:33:00.920Z,0.14
2019-01-23T03:35:30.777Z,0.19
2019-01-23T03:38:00.994Z,0.22
2019-01-23T03:40:30.909Z,0.23
2019-01-23T03:43:00.827Z,0.22
2019-01-23T03:45:30.992Z,0.22
2019-01-23T03:48:00.955Z,0.23
2019-01-23T03:50:30.880Z,0.20
2019-01-23T03:53:00.780Z,0.21
2019-01-23T03:55:30.727Z,0.15
2019-01-23T03:58:00.737Z,0.16
2019-01-23T04:00:30.905Z,0.17
2019-01-23T04:03:00.760Z,0.16
2019-01-23T04:05:31.144Z,0.18
2019-01-23T04:08:01.193Z,0.20
2019-01-23T04:10:30.912Z,0.19
2019-01-23T04:13:00.670Z,0.19
2019-01-23T04:15:30.641Z,0.20
2019-01-23T04:18:00.552Z,0.22
2019-01-23T04:20:30.332Z,0.19
2019-01-23T04:23:00.294Z,0.20
2019-01-23T04:25:30.285Z,0.17
2019-01-23T04:28:00.131Z,0.13
2019-01-23T04:30:30.043Z,0.10
2019-01-23T04:32:59.708Z,0.13
2019-01-23T04:35:29.373Z,0.12
2019-01-23T04:37:59.031Z,0.12
2019-01-23T04:40:28.701Z,0.14
2019-01-23T04:42:58.384Z,0.17
2019-01-23T04:45:28.073Z,0.14
2019-01-23T04:47:57.727Z,0.18
2019-01-23T04:50:28.013Z,0.19
2019-01-23T04:53:05.740Z,0.18
2019-01-23T04:55:37.710Z,0.14
2019-01-23T04:58:08.871Z,0.16
2019-01-23T05:00:38.833Z,0.21
2019-01-23T05:03:08.756Z,0.19
2019-01-23T05:05:38.656Z,0.17
2019-01-23T05:08:10.052Z,0.19
2019-01-23T05:10:40.020Z,0.18
2019-01-23T05:13:09.967Z,0.15
2019-01-23T05:15:39.902Z,0.17
2019-01-23T05:18:10.070Z,0.16
2019-01-23T05:20:39.996Z,0.19
2019-01-23T05:23:11.298Z,0.19
2019-01-23T05:25:48.756Z,0.23
2019-01-23T05:28:19.783Z,0.29
2019-01-23T05:30:49.813Z,0.36
2019-01-23T05:33:19.797Z,0.41
2019-01-23T05:35:49.755Z,0.42
2019-01-23T05:38:19.827Z,0.47
2019-01-23T05:40:49.759Z,0.47
2019-01-23T05:43:20.130Z,0.53
2019-01-23T05:45:53.261Z,0.55
2019-01-23T05:48:47.870Z,0.55
2019-01-23T05:51:17.659Z,0.58
2019-01-23T05:53:47.568Z,0.61
2019-01-23T05:56:17.493Z,0.60
2019-01-23T05:58:47.151Z,0.62
2019-01-23T06:01:17.789Z,0.59
2019-01-23T06:04:03.407Z,0.55
2019-01-23T06:06:33.113Z,0.55
2019-01-23T06:09:04.675Z,0.58
2019-01-23T06:11:34.315Z,0.54
2019-01-23T06:14:05.419Z,0.55
2019-01-23T06:16:35.233Z,0.52
2019-01-23T06:19:05.360Z,0.54
2019-01-23T06:21:35.021Z,0.51
2019-01-23T06:24:05.507Z,0.54
2019-01-23T06:26:35.274Z,0.57
2019-01-23T06:29:05.804Z,0.58
2019-01-23T06:31:35.457Z,0.50
2019-01-23T06:34:05.183Z,0.50
2019-01-23T06:36:35.244Z,0.42
2019-01-23T06:39:08.167Z,0.40
2019-01-23T06:41:38.068Z,0.45
2019-01-23T06:44:08.008Z,0.47
2019-01-23T06:46:37.897Z,0.44
2019-01-23T06:49:07.799Z,0.41
2019-01-23T06:51:37.828Z,0.38
2019-01-23T06:54:07.819Z,0.37
2019-01-23T06:56:37.561Z,0.36
2019-01-23T06:59:07.231Z,0.32
2019-01-23T07:01:36.900Z,0.28
2019-01-23T07:04:06.819Z,0.23
2019-01-23T07:06:37.178Z,0.20
2019-01-23T07:09:09.276Z,0.20
2019-01-23T07:11:40.131Z,0.18
2019-01-23T07:14:09.999Z,0.17
2019-01-23T07:16:39.664Z,0.15
2019-01-23T07:19:09.704Z,0.14
2019-01-23T07:21:39.916Z,0.02
2019-01-23T07:24:09.964Z,-0.04
2019-01-23T07:26:39.881Z,0.04
2019-01-23T07:29:09.851Z,0.05
2019-01-23T07:31:40.628Z,0.08
2019-01-23T07:34:11.731Z,0.05
2019-01-23T07:36:41.411Z,0.03
2019-01-23T07:39:12.760Z,-0.05
2019-01-23T07:41:42.741Z,-0.10
2019-01-23T07:44:12.666Z,-0.08
2019-01-23T07:46:42.408Z,-0.11
2019-01-23T07:49:13.417Z,-0.15
2019-01-23T07:51:43.326Z,-0.18
2019-01-23T07:54:13.004Z,-0.24
2019-01-23T07:56:42.836Z,-0.24
2019-01-23T07:59:12.512Z,-0.25
2019-01-23T08:01:42.371Z,-0.19
2019-01-23T08:04:13.462Z,-0.16
2019-01-23T08:06:43.127Z,-0.11
2019-01-23T08:09:13.105Z,-0.10
2019-01-23T08:11:42.945Z,-0.16
2019-01-23T08:14:12.943Z,-0.24
2019-01-23T08:16:52.114Z,-0.21
2019-01-23T08:19:23.075Z,-0.21
2019-01-23T08:21:52.933Z,-0.19
2019-01-23T08:24:22.744Z,-0.21
2019-01-23T08:26:52.942Z,-0.17
2019-01-23T08:29:22.629Z,-0.24
2019-01-23T08:31:52.600Z,-0.25
2019-01-23T08:34:22.264Z,-0.26
2019-01-23T08:36:52.215Z,-0.28
2019-01-23T08:39:22.208Z,-0.25
2019-01-23T08:41:52.330Z,-0.23
2019-01-23T08:44:22.256Z,-0.19
2019-01-23T08:46:53.424Z,-0.23
2019-01-23T08:49:23.240Z,-0.18
2019-01-23T08:51:52.914Z,-0.14
2019-01-23T08:54:22.652Z,-0.08
2019-01-23T08:56:52.653Z,-0.03
2019-01-23T08:59:23.972Z,0.00
2019-01-23T09:01:53.710Z,-0.04
2019-01-23T09:04:23.413Z,-0.07
2019-01-23T09:06:53.664Z,-0.09
2019-01-23T09:09:23.323Z,-0.08
2019-01-23T09:11:52.979Z,0.01
2019-01-23T09:14:23.672Z,-0.01
2019-01-23T09:16:53.497Z,0.12
2019-01-23T09:19:23.156Z,0.14
2019-01-23T09:21:52.818Z,0.20
2019-01-23T09:24:22.672Z,0.19
2019-01-23T09:26:54.187Z,0.20
2019-01-23T09:29:23.860Z,0.22
2019-01-23T09:32:41.311Z,0.28
2019-01-23T09:35:38.995Z,0.34
2019-01-23T09:38:47.147Z,0.37
2019-01-23T09:41:43.653Z,0.42
2019-01-23T09:44:49.015Z,0.44
2019-01-23T09:47:24.030Z,0.57
2019-01-23T09:50:13.250Z,0.64
2019-01-23T09:53:18.206Z,0.73
2019-01-23T09:55:47.864Z,0.77
2019-01-23T09:58:18.017Z,0.86
2019-01-23T10:00:48.287Z,0.96
2019-01-23T10:03:22.947Z,0.93
2019-01-23T10:05:49.743Z,0.94
2019-01-23T10:08:19.720Z,0.92
2019-01-23T10:10:49.553Z,0.95
2019-01-23T10:13:20.181Z,0.96
2019-01-23T10:15:53.594Z,0.99
2019-01-23T10:18:23.359Z,1.01
2019-01-23T10:20:53.481Z,1.05
2019-01-23T10:23:23.127Z,1.11
2019-01-23T10:25:53.280Z,1.14
2019-01-23T10:28:22.955Z,1.12
2019-01-23T10:30:52.642Z,1.08
2019-01-23T10:33:22.303Z,1.05
2019-01-23T10:35:52.224Z,0.99
2019-01-23T10:38:22.639Z,0.98
2019-01-23T10:40:52.751Z,0.99
2019-01-23T10:43:22.806Z,1.06
2019-01-23T10:45:52.792Z,1.06
2019-01-23T10:48:23.064Z,1.08
2019-01-23T10:50:52.711Z,1.14
2019-01-23T10:53:24.283Z,1.17
2019-01-23T10:55:54.299Z,1.12
2019-01-23T10:58:25.124Z,1.06
2019-01-23T11:00:56.878Z,1.11
2019-01-23T11:03:27.799Z,1.10
2019-01-23T11:05:57.523Z,1.11
2019-01-23T11:08:27.336Z,1.09
2019-01-23T11:10:57.084Z,1.10
2019-01-23T11:13:27.114Z,1.17
2019-01-23T11:16:11.552Z,1.25
2019-01-23T11:18:41.293Z,1.30
2019-01-23T11:21:10.919Z,1.27
2019-01-23T11:23:41.929Z,1.22
2019-01-23T11:26:17.465Z,1.24
2019-01-23T11:28:52.899Z,1.18
2019-01-23T11:31:22.637Z,1.17
2019-01-23T11:33:52.347Z,1.19
2019-01-23T11:36:22.429Z,1.20
2019-01-23T11:38:53.872Z,1.22
2019-01-23T11:41:23.800Z,1.21
2019-01-23T11:43:54.890Z,1.22
2019-01-23T11:46:25.760Z,1.22
2019-01-23T11:48:55.455Z,1.29
2019-01-23T11:51:26.309Z,1.33
2019-01-23T11:53:56.645Z,1.38
2019-01-23T11:56:26.311Z,1.42
2019-01-23T11:58:56.055Z,1.47
2019-01-23T12:01:27.585Z,1.50
2019-01-23T12:03:57.522Z,1.57
2019-01-23T12:06:27.191Z,1.66
2019-01-23T12:08:57.043Z,1.69
2019-01-23T12:11:28.316Z,1.76
2019-01-23T12:13:57.991Z,1.73
2019-01-23T12:16:27.723Z,1.74
2019-01-23T12:18:57.551Z,1.76
2019-01-23T12:21:29.706Z,1.79
2019-01-23T12:23:59.443Z,1.84
2019-01-23T12:26:29.137Z,1.86
2019-01-23T12:29:00.033Z,1.83
2019-01-23T12:31:34.911Z,1.81
2019-01-23T12:34:02.868Z,1.77
2019-01-23T12:36:32.612Z,1.76
2019-01-23T12:39:03.371Z,1.77
2019-01-23T12:41:34.527Z,1.76
2019-01-23T12:44:04.463Z,1.78
2019-01-23T12:46:34.431Z,1.83
2019-01-23T12:49:04.177Z,1.87
2019-01-23T12:51:33.984Z,1.92
2019-01-23T12:54:04.176Z,1.92
2019-01-23T12:56:34.916Z,1.91
2019-01-23T12:59:05.960Z,1.95
2019-01-23T13:01:41.763Z,1.94
2019-01-23T13:04:07.436Z,1.92
2019-01-23T13:06:37.496Z,1.89
2019-01-23T13:09:10.084Z,1.94
2019-01-23T13:11:40.174Z,1.92
2019-01-23T13:14:09.849Z,1.94
2019-01-23T13:16:40.165Z,1.96
2019-01-23T13:19:10.000Z,1.96
2019-01-23T13:21:39.911Z,1.96
2019-01-23T13:24:10.443Z,1.91
2019-01-23T13:26:45.544Z,1.86
2019-01-23T13:29:20.704Z,1.85
2019-01-23T13:31:50.905Z,1.81
2019-01-23T13:34:22.628Z,1.82
2019-01-23T13:36:52.385Z,1.83
2019-01-23T13:39:22.505Z,1.78
2019-01-23T13:41:52.483Z,1.77
2019-01-23T13:44:22.336Z,1.83
2019-01-23T13:46:52.203Z,1.84
2019-01-23T13:49:21.960Z,1.78
2019-01-23T13:51:53.075Z,1.69
2019-01-23T13:54:23.843Z,1.67
2019-01-23T13:56:54.356Z,1.61
2019-01-23T13:59:24.584Z,1.54
2019-01-23T14:01:56.449Z,1.55
2019-01-23T14:04:26.559Z,1.58
2019-01-23T14:06:56.471Z,1.58
2019-01-23T14:09:27.107Z,1.63
2019-01-23T14:11:57.233Z,1.70
2019-01-23T14:14:27.247Z,1.79
2019-01-23T14:16:56.918Z,1.77
2019-01-23T14:19:26.651Z,1.67
2019-01-23T14:21:56.315Z,1.63
2019-01-23T14:24:26.547Z,1.67
2019-01-23T14:26:56.371Z,1.62
2019-01-23T14:29:26.304Z,1.53
2019-01-23T14:32:03.066Z,1.48
2019-01-23T14:34:27.952Z,1.50
2019-01-23T14:36:57.614Z,1.52
2019-01-23T14:39:27.518Z,1.53
2019-01-23T14:41:57.506Z,1.53
2019-01-23T14:44:27.418Z,1.50
2019-01-23T14:46:57.255Z,1.48
2019-01-23T14:49:27.227Z,1.57
2019-01-23T14:51:57.883Z,1.57
2019-01-23T14:54:28.438Z,1.59
2019-01-23T14:56:59.093Z,1.64
2019-01-23T14:59:28.955Z,1.60
2019-01-23T15:01:58.723Z,1.59
2019-01-23T15:04:28.914Z,1.60
2019-01-23T15:06:59.197Z,1.62
2019-01-23T15:09:29.202Z,1.68
2019-01-23T15:11:58.886Z,1.73
2019-01-23T15:14:28.653Z,1.74
2019-01-23T15:16:59.057Z,1.72
2019-01-23T15:19:28.964Z,1.68
2019-01-23T15:21:58.872Z,1.72
2019-01-23T15:24:28.551Z,1.74
2019-01-23T15:26:58.211Z,1.77
2019-01-23T15:29:28.124Z,1.77
2019-01-23T15:31:58.570Z,1.79
2019-01-23T15:34:29.044Z,1.77
2019-01-23T15:36:58.958Z,1.73
2019-01-23T15:39:28.963Z,1.71
2019-01-23T15:44:52.475Z,1.65
2019-01-23T15:47:22.226Z,1.64
2019-01-23T15:49:52.125Z,1.59
2019-01-23T15:52:22.715Z,1.58
2019-01-23T15:54:52.629Z,1.52
2019-01-23T15:57:22.471Z,1.46
2019-01-23T15:59:52.380Z,1.46
2019-01-23T16:02:24.363Z,1.41
2019-01-23T16:04:54.737Z,1.40
2019-01-23T16:07:24.579Z,1.36
2019-01-23T16:09:56.059Z,1.33
2019-01-23T16:12:25.945Z,1.31
2019-01-23T16:14:56.088Z,1.29
2019-01-23T16:17:26.640Z,1.29
2019-01-23T16:19:57.541Z,1.27
2019-01-23T16:22:28.810Z,1.19
2019-01-23T16:25:15.894Z,1.11
2019-01-23T16:27:45.934Z,1.09
2019-01-23T16:30:22.665Z,1.06
2019-01-23T16:32:52.841Z,1.04
2019-01-23T16:35:23.004Z,1.00
2019-01-23T16:37:53.899Z,0.98
2019-01-23T16:40:43.000Z,1.02
2019-01-23T16:43:18.152Z,1.03
2019-01-23T16:45:47.980Z,1.07
2019-01-23T16:48:32.528Z,1.12
2019-01-23T16:51:08.151Z,1.11
2019-01-23T16:53:39.955Z,1.13
2019-01-23T16:56:11.279Z,1.14
2019-01-23T16:58:41.202Z,1.17
2019-01-23T17:01:32.007Z,1.19
2019-01-23T17:04:05.847Z,1.20
2019-01-23T17:06:38.583Z,1.15
2019-01-23T17:09:09.448Z,1.00
2019-01-23T17:11:40.759Z,1.00
2019-01-23T17:14:11.323Z,1.03
2019-01-23T17:16:40.998Z,0.98
2019-01-23T17:19:11.849Z,0.94
2019-01-23T17:21:41.875Z,0.89
2019-01-23T17:24:12.584Z,0.86
2019-01-23T17:26:42.315Z,0.83
2019-01-23T17:29:15.448Z,0.79
2019-01-23T17:31:45.717Z,0.78
2019-01-23T17:34:16.266Z,0.76
2019-01-23T17:36:46.224Z,0.68
2019-01-23T17:39:17.389Z,0.56
2019-01-23T17:41:48.133Z,0.56
2019-01-23T17:44:19.428Z,0.52
2019-01-23T17:46:50.379Z,0.42
2019-01-23T17:49:20.643Z,0.36
2019-01-23T17:51:51.466Z,0.35
2019-01-23T17:54:25.436Z,0.35
2019-01-23T17:56:56.079Z,0.38
2019-01-23T17:59:27.165Z,0.35
2019-01-23T18:01:57.034Z,0.35
2019-01-23T18:04:28.006Z,0.35
2019-01-23T18:06:59.131Z,0.34
2019-01-23T18:09:29.096Z,0.34
2019-01-23T18:11:59.775Z,0.32
2019-01-23T18:14:29.593Z,0.29
2019-01-23T18:17:05.136Z,0.27
2019-01-23T18:19:36.668Z,0.22
2019-01-23T18:22:06.779Z,0.22
2019-01-23T18:24:43.709Z,0.22
2019-01-23T18:27:13.683Z,0.24
2019-01-23T18:29:43.519Z,0.21
2019-01-23T18:32:13.995Z,0.18
2019-01-23T18:35:10.096Z,0.14
2019-01-23T18:38:16.442Z,0.11
2019-01-23T18:44:59.553Z,0.07
2019-01-23T18:51:19.717Z,-0.07
2019-01-23T18:56:43.731Z,-0.11
2019-01-23T18:59:13.854Z,-0.14
2019-01-23T19:01:44.069Z,-0.16
2019-01-23T19:04:14.049Z,-0.20
2019-01-23T19:06:43.973Z,-0.21
2019-01-23T19:09:13.885Z,-0.23
2019-01-23T19:11:44.179Z,-0.25
2019-01-23T19:14:14.090Z,-0.29
2019-01-23T19:16:44.435Z,-0.31
2019-01-23T19:19:14.952Z,-0.36
2019-01-23T19:21:46.218Z,-0.38
2019-01-23T19:24:17.462Z,-0.39
2019-01-23T19:26:47.349Z,-0.39
2019-01-23T19:29:19.074Z,-0.40
2019-01-23T19:31:48.952Z,-0.43
2019-01-23T19:34:19.539Z,-0.44
2019-01-23T19:36:49.936Z,-0.45
2019-01-23T19:39:19.978Z,-0.49
2019-01-23T19:41:50.213Z,-0.54
2019-01-23T19:44:25.315Z,-0.53
2019-01-23T19:47:00.774Z,-0.55
2019-01-23T19:49:30.801Z,-0.56
2019-01-23T19:52:03.081Z,-0.60
2019-01-23T19:54:33.213Z,-0.61
2019-01-23T19:57:03.855Z,-0.58
2019-01-23T19:59:35.895Z,-0.60
2019-01-23T20:02:06.190Z,-0.60
2019-01-23T20:04:37.676Z,-0.61
2019-01-23T20:07:12.083Z,-0.58
2019-01-23T20:09:42.351Z,-0.58
2019-01-23T20:12:15.602Z,-0.65
2019-01-23T20:14:45.131Z,-0.65
2019-01-23T20:17:15.443Z,-0.62
2019-01-23T20:19:46.192Z,-0.64
2019-01-23T20:22:16.412Z,-0.59
2019-01-23T20:24:46.318Z,-0.53
2019-01-23T20:27:17.502Z,-0.51
2019-01-23T20:29:48.847Z,-0.49
2019-01-23T20:32:19.220Z,-0.48
2019-01-23T20:34:49.426Z,-0.59
2019-01-23T20:37:23.449Z,-0.56
2019-01-23T20:39:51.681Z,-0.56
2019-01-23T20:42:22.411Z,-0.56
2019-01-23T20:44:52.382Z,-0.54
2019-01-23T20:47:23.039Z,-0.54
2019-01-23T20:49:52.867Z,-0.51
2019-01-23T20:52:23.666Z,-0.48
2019-01-23T20:54:53.600Z,-0.44
2019-01-23T20:57:23.860Z,-0.44
2019-01-23T20:59:53.716Z,-0.45
2019-01-23T21:02:23.625Z,-0.47
2019-01-23T21:04:54.464Z,-0.42
2019-01-23T21:07:24.549Z,-0.41
2019-01-23T21:09:55.095Z,-0.47
2019-01-23T21:12:25.735Z,-0.47
2019-01-23T21:14:55.953Z,-0.52
2019-01-23T21:17:25.871Z,-0.50
2019-01-23T21:19:59.040Z,-0.48
2019-01-23T21:22:29.382Z,-0.45
2019-01-23T21:25:03.246Z,-0.46
2019-01-23T21:27:35.037Z,-0.44
2019-01-23T21:30:08.518Z,-0.44
2019-01-23T21:32:39.897Z,-0.47
2019-01-23T21:35:10.209Z,-0.46
2019-01-23T21:37:41.781Z,-0.57
2019-01-23T21:40:17.938Z,-0.75
2019-01-23T21:42:48.210Z,-0.76
2019-01-23T21:45:19.177Z,-0.84
2019-01-23T21:47:49.957Z,-0.86
2019-01-23T21:50:20.934Z,-0.84
2019-01-23T21:52:51.330Z,-0.83
2019-01-23T21:55:22.578Z,-0.72
2019-01-23T21:57:52.849Z,-0.74
2019-01-23T22:00:28.374Z,-0.72
2019-01-23T22:02:58.917Z,-0.68
2019-01-23T22:05:29.154Z,-0.70
2019-01-23T22:08:00.042Z,-0.75
2019-01-23T22:10:30.851Z,-0.73
2019-01-23T22:13:00.865Z,-0.73
2019-01-23T22:15:31.378Z,-0.74
2019-01-23T22:18:01.352Z,-0.73
2019-01-23T22:20:32.019Z,-0.72
2019-01-23T22:23:02.718Z,-0.66
2019-01-23T22:25:32.562Z,-0.69
2019-01-23T22:28:02.625Z,-0.74
2019-01-23T22:30:33.138Z,-0.76
2019-01-23T22:33:05.831Z,-0.77
2019-01-23T22:35:36.659Z,-0.78
2019-01-23T22:38:07.803Z,-0.77
2019-01-23T22:40:38.474Z,-0.76
2019-01-23T22:43:14.999Z,-0.76
2019-01-23T22:45:41.069Z,-0.69
2019-01-23T22:48:11.297Z,-0.62
2019-01-23T22:50:41.274Z,-0.57
2019-01-23T22:53:11.210Z,-0.60
2019-01-23T22:55:41.331Z,-0.62
2019-01-23T22:58:11.256Z,-0.58
2019-01-23T23:01:21.183Z,-0.61
2019-01-23T23:03:50.930Z,-0.60
2019-01-23T23:06:20.793Z,-0.64
2019-01-23T23:08:50.662Z,-0.65
2019-01-23T23:11:20.520Z,-0.62
2019-01-23T23:13:50.354Z,-0.64
2019-01-23T23:16:21.588Z,-0.64
2019-01-23T23:18:51.482Z,-0.61
2019-01-23T23:21:21.616Z,-0.60
2019-01-23T23:23:51.555Z,-0.61
2019-01-23T23:26:21.917Z,-0.60
2019-01-23T23:28:51.692Z,-0.62
2019-01-23T23:31:21.853Z,-0.61
2019-01-23T23:36:46.625Z,-0.53
2019-01-23T23:39:16.526Z,-0.53
2019-01-23T23:41:46.454Z,-0.59
2019-01-23T23:44:16.592Z,-0.63
2019-01-23T23:46:46.276Z,-0.65
2019-01-23T23:49:16.177Z,-0.67
2019-01-23T23:51:46.149Z,-0.71
2019-01-23T23:54:16.017Z,-0.74
2019-01-23T23:56:46.007Z,-0.75
2019-01-23T23:59:16.172Z,-0.76
